sensor_id;sensor_type;location;lat;lon;timestamp;temperature;humidity
981;DHT22;479;53.514;9.994;2023-05-18T00:01:08;9.70;99.20
981;DHT22;479;53.514;9.994;2023-05-18T00:03:37;9.80;99.90
981;DHT22;479;53.514;9.994;2023-05-18T00:06:04;10.00;99.20
981;DHT22;479;53.514;9.994;2023-05-18T00:08:32;9.80;99.00
981;DHT22;479;53.514;9.994;2023-05-18T00:10:59;9.70;99.90
981;DHT22;479;53.514;9.994;2023-05-18T00:13:26;9.80;99.90
981;DHT22;479;53.514;9.994;2023-05-18T00:15:53;9.90;99.90
981;DHT22;479;53.514;9.994;2023-05-18T00:18:21;10.00;99.60
981;DHT22;479;53.514;9.994;2023-05-18T00:20:52;9.90;98.00
981;DHT22;479;53.514;9.994;2023-05-18T00:23:25;9.60;97.40
981;DHT22;479;53.514;9.994;2023-05-18T00:25:55;9.60;99.90
981;DHT22;479;53.514;9.994;2023-05-18T00:28:22;9.60;98.70
981;DHT22;479;53.514;9.994;2023-05-18T00:30:50;9.60;99.00
981;DHT22;479;53.514;9.994;2023-05-18T00:33:17;9.60;98.30
981;DHT22;479;53.514;9.994;2023-05-18T00:35:45;9.50;97.30
981;DHT22;479;53.514;9.994;2023-05-18T00:38:12;9.50;99.90
981;DHT22;479;53.514;9.994;2023-05-18T00:40:40;9.80;99.90
981;DHT22;479;53.514;9.994;2023-05-18T00:43:07;9.90;98.80
981;DHT22;479;53.514;9.994;2023-05-18T00:45:34;9.70;97.00
981;DHT22;479;53.514;9.994;2023-05-18T00:48:01;9.80;99.90
981;DHT22;479;53.514;9.994;2023-05-18T00:50:28;9.90;99.50
981;DHT22;479;53.514;9.994;2023-05-18T00:52:56;9.90;98.40
981;DHT22;479;53.514;9.994;2023-05-18T00:55:23;9.60;95.80
981;DHT22;479;53.514;9.994;2023-05-18T00:57:52;9.70;99.90
981;DHT22;479;53.514;9.994;2023-05-18T01:00:21;10.10;99.90
981;DHT22;479;53.514;9.994;2023-05-18T01:02:48;9.70;96.00
981;DHT22;479;53.514;9.994;2023-05-18T01:05:15;9.70;97.90
981;DHT22;479;53.514;9.994;2023-05-18T01:07:44;9.60;98.30
981;DHT22;479;53.514;9.994;2023-05-18T01:10:14;9.50;98.40
981;DHT22;479;53.514;9.994;2023-05-18T01:12:47;9.50;98.60
981;DHT22;479;53.514;9.994;2023-05-18T01:15:18;9.40;99.30
981;DHT22;479;53.514;9.994;2023-05-18T01:17:58;9.50;99.90
981;DHT22;479;53.514;9.994;2023-05-18T01:20:31;9.50;98.70
981;DHT22;479;53.514;9.994;2023-05-18T01:23:17;9.30;98.30
981;DHT22;479;53.514;9.994;2023-05-18T01:26:00;9.50;99.80
981;DHT22;479;53.514;9.994;2023-05-18T01:28:29;9.60;98.50
981;DHT22;479;53.514;9.994;2023-05-18T01:30:58;9.60;98.60
981;DHT22;479;53.514;9.994;2023-05-18T01:33:25;9.50;99.70
981;DHT22;479;53.514;9.994;2023-05-18T01:35:52;9.60;99.90
981;DHT22;479;53.514;9.994;2023-05-18T01:38:22;9.70;98.90
981;DHT22;479;53.514;9.994;2023-05-18T01:40:55;9.60;97.70
981;DHT22;479;53.514;9.994;2023-05-18T01:43:30;9.50;98.50
981;DHT22;479;53.514;9.994;2023-05-18T01:46:08;9.60;99.70
981;DHT22;479;53.514;9.994;2023-05-18T01:48:40;9.50;98.50
981;DHT22;479;53.514;9.994;2023-05-18T01:51:12;9.40;99.90
981;DHT22;479;53.514;9.994;2023-05-18T01:53:44;9.70;99.90
981;DHT22;479;53.514;9.994;2023-05-18T01:56:13;9.80;99.90
981;DHT22;479;53.514;9.994;2023-05-18T01:58:41;10.00;99.90
981;DHT22;479;53.514;9.994;2023-05-18T02:01:09;10.00;99.20
981;DHT22;479;53.514;9.994;2023-05-18T02:03:36;9.50;97.50
981;DHT22;479;53.514;9.994;2023-05-18T02:06:03;9.60;98.60
981;DHT22;479;53.514;9.994;2023-05-18T02:08:30;9.40;97.60
981;DHT22;479;53.514;9.994;2023-05-18T02:10:58;9.20;98.00
981;DHT22;479;53.514;9.994;2023-05-18T02:13:25;9.40;99.80
981;DHT22;479;53.514;9.994;2023-05-18T02:15:53;9.50;99.80
981;DHT22;479;53.514;9.994;2023-05-18T02:18:20;9.60;99.20
981;DHT22;479;53.514;9.994;2023-05-18T02:20:48;9.20;97.60
981;DHT22;479;53.514;9.994;2023-05-18T02:23:15;9.30;99.40
981;DHT22;479;53.514;9.994;2023-05-18T02:25:43;9.30;98.70
981;DHT22;479;53.514;9.994;2023-05-18T02:28:12;9.30;98.60
981;DHT22;479;53.514;9.994;2023-05-18T02:30:39;9.30;99.50
981;DHT22;479;53.514;9.994;2023-05-18T02:33:07;9.20;99.30
981;DHT22;479;53.514;9.994;2023-05-18T02:35:35;9.10;99.50
981;DHT22;479;53.514;9.994;2023-05-18T02:38:02;9.10;99.00
981;DHT22;479;53.514;9.994;2023-05-18T02:40:29;9.10;99.60
981;DHT22;479;53.514;9.994;2023-05-18T02:42:56;9.30;99.90
981;DHT22;479;53.514;9.994;2023-05-18T02:45:24;9.50;99.90
981;DHT22;479;53.514;9.994;2023-05-18T02:47:51;9.70;99.10
981;DHT22;479;53.514;9.994;2023-05-18T02:50:19;9.50;97.30
981;DHT22;479;53.514;9.994;2023-05-18T02:52:47;9.30;96.10
981;DHT22;479;53.514;9.994;2023-05-18T02:55:15;9.10;98.40
981;DHT22;479;53.514;9.994;2023-05-18T02:57:52;9.00;97.70
981;DHT22;479;53.514;9.994;2023-05-18T03:00:25;8.90;98.20
981;DHT22;479;53.514;9.994;2023-05-18T03:02:54;8.90;98.50
981;DHT22;479;53.514;9.994;2023-05-18T03:05:23;9.10;99.90
981;DHT22;479;53.514;9.994;2023-05-18T03:07:50;9.20;99.90
981;DHT22;479;53.514;9.994;2023-05-18T03:10:20;9.10;98.40
981;DHT22;479;53.514;9.994;2023-05-18T03:12:47;9.30;99.70
981;DHT22;479;53.514;9.994;2023-05-18T03:15:14;9.40;99.90
981;DHT22;479;53.514;9.994;2023-05-18T03:17:41;9.40;99.20
981;DHT22;479;53.514;9.994;2023-05-18T03:20:09;9.20;97.40
981;DHT22;479;53.514;9.994;2023-05-18T03:22:40;9.20;99.30
981;DHT22;479;53.514;9.994;2023-05-18T03:25:07;9.10;99.70
981;DHT22;479;53.514;9.994;2023-05-18T03:27:34;9.20;99.80
981;DHT22;479;53.514;9.994;2023-05-18T03:30:03;9.40;99.90
981;DHT22;479;53.514;9.994;2023-05-18T03:32:30;9.50;99.90
981;DHT22;479;53.514;9.994;2023-05-18T03:34:59;9.40;98.40
981;DHT22;479;53.514;9.994;2023-05-18T03:37:26;9.30;98.60
981;DHT22;479;53.514;9.994;2023-05-18T03:39:58;9.20;97.60
981;DHT22;479;53.514;9.994;2023-05-18T03:42:26;9.10;97.30
981;DHT22;479;53.514;9.994;2023-05-18T03:44:53;9.20;98.30
981;DHT22;479;53.514;9.994;2023-05-18T03:47:20;9.20;97.90
981;DHT22;479;53.514;9.994;2023-05-18T03:49:47;9.30;99.70
981;DHT22;479;53.514;9.994;2023-05-18T03:52:14;9.20;98.20
981;DHT22;479;53.514;9.994;2023-05-18T03:54:47;9.20;98.70
981;DHT22;479;53.514;9.994;2023-05-18T03:57:16;9.10;98.60
981;DHT22;479;53.514;9.994;2023-05-18T03:59:44;9.00;97.30
981;DHT22;479;53.514;9.994;2023-05-18T04:02:11;8.90;97.50
981;DHT22;479;53.514;9.994;2023-05-18T04:04:38;9.00;99.20
981;DHT22;479;53.514;9.994;2023-05-18T04:07:06;9.20;98.40
981;DHT22;479;53.514;9.994;2023-05-18T04:09:34;9.30;98.40
981;DHT22;479;53.514;9.994;2023-05-18T04:12:03;9.40;97.70
981;DHT22;479;53.514;9.994;2023-05-18T04:14:31;9.30;98.40
981;DHT22;479;53.514;9.994;2023-05-18T04:16:58;8.90;96.50
981;DHT22;479;53.514;9.994;2023-05-18T04:19:29;8.90;97.20
981;DHT22;479;53.514;9.994;2023-05-18T04:21:57;8.90;98.20
981;DHT22;479;53.514;9.994;2023-05-18T04:24:24;8.90;98.00
981;DHT22;479;53.514;9.994;2023-05-18T04:26:52;9.00;98.70
981;DHT22;479;53.514;9.994;2023-05-18T04:29:19;9.20;98.30
981;DHT22;479;53.514;9.994;2023-05-18T04:31:48;9.10;97.00
981;DHT22;479;53.514;9.994;2023-05-18T04:34:15;9.10;97.10
981;DHT22;479;53.514;9.994;2023-05-18T04:36:44;9.20;99.40
981;DHT22;479;53.514;9.994;2023-05-18T04:39:11;9.40;98.80
981;DHT22;479;53.514;9.994;2023-05-18T04:41:39;9.30;97.40
981;DHT22;479;53.514;9.994;2023-05-18T04:44:06;9.40;98.40
981;DHT22;479;53.514;9.994;2023-05-18T04:46:34;9.40;96.40
981;DHT22;479;53.514;9.994;2023-05-18T04:49:07;9.30;96.10
981;DHT22;479;53.514;9.994;2023-05-18T04:51:36;9.50;97.90
981;DHT22;479;53.514;9.994;2023-05-18T04:54:03;9.30;96.40
981;DHT22;479;53.514;9.994;2023-05-18T04:56:30;9.50;98.20
981;DHT22;479;53.514;9.994;2023-05-18T04:58:59;9.50;97.70
981;DHT22;479;53.514;9.994;2023-05-18T05:01:28;9.60;97.50
981;DHT22;479;53.514;9.994;2023-05-18T05:03:55;9.70;97.10
981;DHT22;479;53.514;9.994;2023-05-18T05:06:24;9.60;97.40
981;DHT22;479;53.514;9.994;2023-05-18T05:08:51;9.70;96.10
981;DHT22;479;53.514;9.994;2023-05-18T05:11:18;9.50;94.80
981;DHT22;479;53.514;9.994;2023-05-18T05:13:46;9.40;95.20
981;DHT22;479;53.514;9.994;2023-05-18T05:16:13;9.50;96.00
981;DHT22;479;53.514;9.994;2023-05-18T05:18:40;9.50;97.20
981;DHT22;479;53.514;9.994;2023-05-18T05:21:08;9.70;96.50
981;DHT22;479;53.514;9.994;2023-05-18T05:23:36;9.70;95.60
981;DHT22;479;53.514;9.994;2023-05-18T05:26:03;9.60;96.20
981;DHT22;479;53.514;9.994;2023-05-18T05:28:31;9.70;97.70
981;DHT22;479;53.514;9.994;2023-05-18T05:30:58;9.90;96.00
981;DHT22;479;53.514;9.994;2023-05-18T05:33:25;9.70;93.40
981;DHT22;479;53.514;9.994;2023-05-18T05:35:52;9.40;94.40
981;DHT22;479;53.514;9.994;2023-05-18T05:38:19;9.30;94.80
981;DHT22;479;53.514;9.994;2023-05-18T05:40:48;9.50;97.20
981;DHT22;479;53.514;9.994;2023-05-18T05:43:15;9.80;97.70
981;DHT22;479;53.514;9.994;2023-05-18T05:45:44;9.80;96.10
981;DHT22;479;53.514;9.994;2023-05-18T05:48:11;10.00;94.80
981;DHT22;479;53.514;9.994;2023-05-18T05:50:38;9.90;94.30
981;DHT22;479;53.514;9.994;2023-05-18T05:53:05;9.90;93.70
981;DHT22;479;53.514;9.994;2023-05-18T05:55:35;9.90;93.40
981;DHT22;479;53.514;9.994;2023-05-18T05:58:08;9.70;94.10
981;DHT22;479;53.514;9.994;2023-05-18T06:00:35;9.60;95.30
981;DHT22;479;53.514;9.994;2023-05-18T06:03:03;9.80;96.30
981;DHT22;479;53.514;9.994;2023-05-18T06:05:35;9.90;94.40
981;DHT22;479;53.514;9.994;2023-05-18T06:08:05;10.00;95.10
981;DHT22;479;53.514;9.994;2023-05-18T06:10:33;9.80;93.20
981;DHT22;479;53.514;9.994;2023-05-18T06:13:00;9.90;93.80
981;DHT22;479;53.514;9.994;2023-05-18T06:15:35;9.90;93.10
981;DHT22;479;53.514;9.994;2023-05-18T06:18:02;10.00;91.40
981;DHT22;479;53.514;9.994;2023-05-18T06:20:29;10.10;91.50
981;DHT22;479;53.514;9.994;2023-05-18T06:22:56;10.20;91.30
981;DHT22;479;53.514;9.994;2023-05-18T06:25:37;10.30;90.60
981;DHT22;479;53.514;9.994;2023-05-18T06:28:09;10.40;91.00
981;DHT22;479;53.514;9.994;2023-05-18T06:30:47;10.70;91.20
981;DHT22;479;53.514;9.994;2023-05-18T06:33:28;10.70;88.70
981;DHT22;479;53.514;9.994;2023-05-18T06:35:56;10.70;89.70
981;DHT22;479;53.514;9.994;2023-05-18T06:38:23;10.60;88.70
981;DHT22;479;53.514;9.994;2023-05-18T06:40:50;10.20;88.10
981;DHT22;479;53.514;9.994;2023-05-18T06:43:17;10.40;90.50
981;DHT22;479;53.514;9.994;2023-05-18T06:45:50;10.40;89.70
981;DHT22;479;53.514;9.994;2023-05-18T06:48:27;10.40;88.80
981;DHT22;479;53.514;9.994;2023-05-18T06:50:54;10.40;87.20
981;DHT22;479;53.514;9.994;2023-05-18T06:53:21;10.40;88.50
981;DHT22;479;53.514;9.994;2023-05-18T06:55:48;10.50;89.10
981;DHT22;479;53.514;9.994;2023-05-18T06:58:15;10.70;88.40
981;DHT22;479;53.514;9.994;2023-05-18T07:00:42;10.80;88.30
981;DHT22;479;53.514;9.994;2023-05-18T07:03:11;10.40;87.50
981;DHT22;479;53.514;9.994;2023-05-18T07:05:38;10.30;90.10
981;DHT22;479;53.514;9.994;2023-05-18T07:08:05;10.80;89.20
981;DHT22;479;53.514;9.994;2023-05-18T07:10:32;11.00;87.90
981;DHT22;479;53.514;9.994;2023-05-18T07:13:00;11.50;85.30
981;DHT22;479;53.514;9.994;2023-05-18T07:15:27;11.70;82.80
981;DHT22;479;53.514;9.994;2023-05-18T07:17:54;11.90;79.50
981;DHT22;479;53.514;9.994;2023-05-18T07:20:22;11.80;78.10
981;DHT22;479;53.514;9.994;2023-05-18T07:22:49;11.80;80.30
981;DHT22;479;53.514;9.994;2023-05-18T07:25:16;11.60;77.20
981;DHT22;479;53.514;9.994;2023-05-18T07:27:44;11.50;78.60
981;DHT22;479;53.514;9.994;2023-05-18T07:30:11;11.70;79.40
981;DHT22;479;53.514;9.994;2023-05-18T07:32:38;12.00;78.80
981;DHT22;479;53.514;9.994;2023-05-18T07:35:07;12.20;77.00
981;DHT22;479;53.514;9.994;2023-05-18T07:37:38;12.30;76.10
981;DHT22;479;53.514;9.994;2023-05-18T07:40:06;12.70;73.90
981;DHT22;479;53.514;9.994;2023-05-18T07:42:34;13.10;73.90
981;DHT22;479;53.514;9.994;2023-05-18T07:45:01;13.50;71.30
981;DHT22;479;53.514;9.994;2023-05-18T07:47:28;13.60;68.10
981;DHT22;479;53.514;9.994;2023-05-18T07:49:55;13.50;66.10
981;DHT22;479;53.514;9.994;2023-05-18T07:52:22;13.50;66.10
981;DHT22;479;53.514;9.994;2023-05-18T07:54:51;13.70;65.90
981;DHT22;479;53.514;9.994;2023-05-18T07:57:18;13.80;63.60
981;DHT22;479;53.514;9.994;2023-05-18T07:59:45;13.60;62.90
981;DHT22;479;53.514;9.994;2023-05-18T08:02:12;13.70;64.40
981;DHT22;479;53.514;9.994;2023-05-18T08:04:41;14.00;62.10
981;DHT22;479;53.514;9.994;2023-05-18T08:07:08;14.00;62.10
981;DHT22;479;53.514;9.994;2023-05-18T08:09:35;14.20;59.90
981;DHT22;479;53.514;9.994;2023-05-18T08:12:04;14.30;59.70
981;DHT22;479;53.514;9.994;2023-05-18T08:14:31;14.10;58.50
981;DHT22;479;53.514;9.994;2023-05-18T08:16:58;14.10;60.10
981;DHT22;479;53.514;9.994;2023-05-18T08:19:25;14.30;59.20
981;DHT22;479;53.514;9.994;2023-05-18T08:21:52;14.30;57.60
981;DHT22;479;53.514;9.994;2023-05-18T08:24:19;14.30;58.10
981;DHT22;479;53.514;9.994;2023-05-18T08:26:46;14.30;58.20
981;DHT22;479;53.514;9.994;2023-05-18T08:29:15;14.50;58.10
981;DHT22;479;53.514;9.994;2023-05-18T08:31:42;14.00;57.20
981;DHT22;479;53.514;9.994;2023-05-18T08:34:09;13.60;57.60
981;DHT22;479;53.514;9.994;2023-05-18T08:36:36;13.30;58.20
981;DHT22;479;53.514;9.994;2023-05-18T08:39:03;13.20;59.50
981;DHT22;479;53.514;9.994;2023-05-18T08:41:33;13.70;60.30
981;DHT22;479;53.514;9.994;2023-05-18T08:44:04;14.20;59.70
981;DHT22;479;53.514;9.994;2023-05-18T08:46:34;14.70;57.60
981;DHT22;479;53.514;9.994;2023-05-18T08:49:04;15.30;55.40
981;DHT22;479;53.514;9.994;2023-05-18T08:51:33;15.80;54.80
981;DHT22;479;53.514;9.994;2023-05-18T08:54:02;16.80;52.30
981;DHT22;479;53.514;9.994;2023-05-18T08:56:31;16.90;50.80
981;DHT22;479;53.514;9.994;2023-05-18T08:58:59;17.30;49.40
981;DHT22;479;53.514;9.994;2023-05-18T09:01:29;17.40;48.00
981;DHT22;479;53.514;9.994;2023-05-18T09:03:59;17.10;47.70
981;DHT22;479;53.514;9.994;2023-05-18T09:06:27;16.60;50.20
981;DHT22;479;53.514;9.994;2023-05-18T09:08:55;17.00;48.70
981;DHT22;479;53.514;9.994;2023-05-18T09:11:24;17.00;46.70
981;DHT22;479;53.514;9.994;2023-05-18T09:13:52;17.10;47.40
981;DHT22;479;53.514;9.994;2023-05-18T09:16:20;17.40;46.10
981;DHT22;479;53.514;9.994;2023-05-18T09:18:46;17.70;45.90
981;DHT22;479;53.514;9.994;2023-05-18T09:21:15;17.40;45.20
981;DHT22;479;53.514;9.994;2023-05-18T09:23:43;18.10;44.80
981;DHT22;479;53.514;9.994;2023-05-18T09:26:10;18.50;44.60
981;DHT22;479;53.514;9.994;2023-05-18T09:28:39;18.30;43.30
981;DHT22;479;53.514;9.994;2023-05-18T09:31:08;18.90;43.60
981;DHT22;479;53.514;9.994;2023-05-18T09:33:38;18.90;41.30
981;DHT22;479;53.514;9.994;2023-05-18T09:36:06;19.30;41.60
981;DHT22;479;53.514;9.994;2023-05-18T09:38:37;19.10;41.00
981;DHT22;479;53.514;9.994;2023-05-18T09:41:09;18.80;41.30
981;DHT22;479;53.514;9.994;2023-05-18T09:43:37;18.60;41.40
981;DHT22;479;53.514;9.994;2023-05-18T09:46:06;18.40;41.80
981;DHT22;479;53.514;9.994;2023-05-18T09:48:34;17.90;41.60
981;DHT22;479;53.514;9.994;2023-05-18T09:51:03;17.90;42.50
981;DHT22;479;53.514;9.994;2023-05-18T09:53:30;17.80;43.40
981;DHT22;479;53.514;9.994;2023-05-18T09:56:02;18.10;41.70
981;DHT22;479;53.514;9.994;2023-05-18T09:58:30;17.80;41.40
981;DHT22;479;53.514;9.994;2023-05-18T10:00:59;16.90;42.30
981;DHT22;479;53.514;9.994;2023-05-18T10:03:31;16.80;44.40
981;DHT22;479;53.514;9.994;2023-05-18T10:06:03;17.80;43.90
981;DHT22;479;53.514;9.994;2023-05-18T10:08:30;18.40;41.40
981;DHT22;479;53.514;9.994;2023-05-18T10:11:02;18.70;40.10
981;DHT22;479;53.514;9.994;2023-05-18T10:13:30;18.30;39.00
981;DHT22;479;53.514;9.994;2023-05-18T10:15:59;18.30;39.30
981;DHT22;479;53.514;9.994;2023-05-18T10:18:27;18.40;40.20
981;DHT22;479;53.514;9.994;2023-05-18T10:20:56;18.10;40.10
981;DHT22;479;53.514;9.994;2023-05-18T10:23:26;18.40;39.80
981;DHT22;479;53.514;9.994;2023-05-18T10:25:53;18.90;38.80
981;DHT22;479;53.514;9.994;2023-05-18T10:28:26;18.70;38.80
981;DHT22;479;53.514;9.994;2023-05-18T10:30:55;18.40;39.10
981;DHT22;479;53.514;9.994;2023-05-18T10:33:23;18.90;38.60
981;DHT22;479;53.514;9.994;2023-05-18T10:35:51;18.90;38.50
981;DHT22;479;53.514;9.994;2023-05-18T10:38:20;18.40;38.70
981;DHT22;479;53.514;9.994;2023-05-18T10:40:48;18.20;38.60
981;DHT22;479;53.514;9.994;2023-05-18T10:43:18;18.20;39.50
981;DHT22;479;53.514;9.994;2023-05-18T10:45:51;18.30;39.60
981;DHT22;479;53.514;9.994;2023-05-18T10:48:19;17.10;40.70
981;DHT22;479;53.514;9.994;2023-05-18T10:50:48;17.50;41.10
981;DHT22;479;53.514;9.994;2023-05-18T10:53:17;17.80;40.50
981;DHT22;479;53.514;9.994;2023-05-18T10:55:45;17.60;40.70
981;DHT22;479;53.514;9.994;2023-05-18T10:58:14;17.10;40.60
981;DHT22;479;53.514;9.994;2023-05-18T11:00:43;17.20;41.60
981;DHT22;479;53.514;9.994;2023-05-18T11:03:17;17.40;40.50
981;DHT22;479;53.514;9.994;2023-05-18T11:05:48;18.20;40.20
981;DHT22;479;53.514;9.994;2023-05-18T11:08:26;18.30;39.40
981;DHT22;479;53.514;9.994;2023-05-18T11:11:00;18.70;38.90
981;DHT22;479;53.514;9.994;2023-05-18T11:13:29;18.60;38.70
981;DHT22;479;53.514;9.994;2023-05-18T11:16:06;18.10;38.90
981;DHT22;479;53.514;9.994;2023-05-18T11:18:41;17.30;39.60
981;DHT22;479;53.514;9.994;2023-05-18T11:24:18;17.70;41.40
981;DHT22;479;53.514;9.994;2023-05-18T11:26:47;18.30;40.50
981;DHT22;479;53.514;9.994;2023-05-18T11:29:19;18.40;38.80
981;DHT22;479;53.514;9.994;2023-05-18T11:31:47;17.80;40.00
981;DHT22;479;53.514;9.994;2023-05-18T11:34:41;17.40;40.60
981;DHT22;479;53.514;9.994;2023-05-18T11:37:10;17.10;41.40
981;DHT22;479;53.514;9.994;2023-05-18T11:39:38;17.30;41.10
981;DHT22;479;53.514;9.994;2023-05-18T11:42:06;16.80;41.50
981;DHT22;479;53.514;9.994;2023-05-18T11:44:34;16.60;42.00
981;DHT22;479;53.514;9.994;2023-05-18T11:47:03;16.50;42.80
981;DHT22;479;53.514;9.994;2023-05-18T11:49:32;16.80;42.70
981;DHT22;479;53.514;9.994;2023-05-18T11:52:05;16.60;42.40
981;DHT22;479;53.514;9.994;2023-05-18T11:54:34;16.70;42.60
981;DHT22;479;53.514;9.994;2023-05-18T11:57:03;16.80;41.70
981;DHT22;479;53.514;9.994;2023-05-18T11:59:32;16.80;42.40
981;DHT22;479;53.514;9.994;2023-05-18T12:02:00;16.50;41.50
981;DHT22;479;53.514;9.994;2023-05-18T12:04:29;16.50;41.80
981;DHT22;479;53.514;9.994;2023-05-18T12:07:05;16.40;41.40
981;DHT22;479;53.514;9.994;2023-05-18T12:09:32;16.30;41.50
981;DHT22;479;53.514;9.994;2023-05-18T12:12:00;16.50;41.90
981;DHT22;479;53.514;9.994;2023-05-18T12:14:28;16.20;41.20
981;DHT22;479;53.514;9.994;2023-05-18T12:16:56;16.10;41.40
981;DHT22;479;53.514;9.994;2023-05-18T12:19:24;16.30;41.80
981;DHT22;479;53.514;9.994;2023-05-18T12:21:52;16.30;42.30
981;DHT22;479;53.514;9.994;2023-05-18T12:24:20;16.50;41.70
981;DHT22;479;53.514;9.994;2023-05-18T12:26:47;16.50;41.10
981;DHT22;479;53.514;9.994;2023-05-18T12:29:14;16.40;42.40
981;DHT22;479;53.514;9.994;2023-05-18T12:31:45;16.40;41.90
981;DHT22;479;53.514;9.994;2023-05-18T12:34:13;16.50;42.10
981;DHT22;479;53.514;9.994;2023-05-18T12:36:49;16.50;41.90
981;DHT22;479;53.514;9.994;2023-05-18T12:39:16;16.50;41.90
981;DHT22;479;53.514;9.994;2023-05-18T12:41:45;16.60;42.20
981;DHT22;479;53.514;9.994;2023-05-18T12:44:12;16.40;42.40
981;DHT22;479;53.514;9.994;2023-05-18T12:46:40;16.30;42.70
981;DHT22;479;53.514;9.994;2023-05-18T12:49:07;16.40;43.40
981;DHT22;479;53.514;9.994;2023-05-18T12:51:35;16.50;42.70
981;DHT22;479;53.514;9.994;2023-05-18T12:54:03;16.30;43.70
981;DHT22;479;53.514;9.994;2023-05-18T12:56:50;16.50;42.60
981;DHT22;479;53.514;9.994;2023-05-18T12:59:18;16.50;43.10
981;DHT22;479;53.514;9.994;2023-05-18T13:01:45;16.40;42.80
981;DHT22;479;53.514;9.994;2023-05-18T13:04:20;16.30;42.50
981;DHT22;479;53.514;9.994;2023-05-18T13:06:47;16.40;43.00
981;DHT22;479;53.514;9.994;2023-05-18T13:09:14;16.40;43.00
981;DHT22;479;53.514;9.994;2023-05-18T13:11:45;16.10;43.80
981;DHT22;479;53.514;9.994;2023-05-18T13:14:19;16.50;44.50
981;DHT22;479;53.514;9.994;2023-05-18T13:16:49;16.40;43.90
981;DHT22;479;53.514;9.994;2023-05-18T13:19:17;16.40;44.70
981;DHT22;479;53.514;9.994;2023-05-18T13:21:44;16.20;44.10
981;DHT22;479;53.514;9.994;2023-05-18T13:24:12;16.20;43.90
981;DHT22;479;53.514;9.994;2023-05-18T13:26:39;16.30;43.80
981;DHT22;479;53.514;9.994;2023-05-18T13:29:07;16.30;43.70
981;DHT22;479;53.514;9.994;2023-05-18T13:31:35;16.20;43.90
981;DHT22;479;53.514;9.994;2023-05-18T13:34:02;16.00;44.90
981;DHT22;479;53.514;9.994;2023-05-18T13:36:29;16.10;44.80
981;DHT22;479;53.514;9.994;2023-05-18T13:38:58;16.10;44.60
981;DHT22;479;53.514;9.994;2023-05-18T13:41:26;16.30;44.70
981;DHT22;479;53.514;9.994;2023-05-18T13:43:52;16.30;44.60
981;DHT22;479;53.514;9.994;2023-05-18T13:46:19;16.50;44.00
981;DHT22;479;53.514;9.994;2023-05-18T13:48:47;16.50;44.20
981;DHT22;479;53.514;9.994;2023-05-18T13:51:14;16.40;43.10
981;DHT22;479;53.514;9.994;2023-05-18T13:53:41;16.40;43.50
981;DHT22;479;53.514;9.994;2023-05-18T13:56:08;16.50;43.30
981;DHT22;479;53.514;9.994;2023-05-18T13:58:35;16.40;42.90
981;DHT22;479;53.514;9.994;2023-05-18T14:01:02;16.30;43.60
981;DHT22;479;53.514;9.994;2023-05-18T14:03:32;16.40;43.80
981;DHT22;479;53.514;9.994;2023-05-18T14:06:03;16.40;43.60
981;DHT22;479;53.514;9.994;2023-05-18T14:08:30;16.50;43.70
981;DHT22;479;53.514;9.994;2023-05-18T14:10:56;16.60;43.90
981;DHT22;479;53.514;9.994;2023-05-18T14:13:23;16.80;44.10
981;DHT22;479;53.514;9.994;2023-05-18T14:15:50;16.70;43.60
981;DHT22;479;53.514;9.994;2023-05-18T14:18:17;16.60;42.60
981;DHT22;479;53.514;9.994;2023-05-18T14:20:44;16.30;42.80
981;DHT22;479;53.514;9.994;2023-05-18T14:23:13;16.00;42.90
981;DHT22;479;53.514;9.994;2023-05-18T14:25:40;16.00;43.40
981;DHT22;479;53.514;9.994;2023-05-18T14:28:10;16.10;43.90
981;DHT22;479;53.514;9.994;2023-05-18T14:30:38;16.30;43.40
981;DHT22;479;53.514;9.994;2023-05-18T14:33:04;16.10;42.30
981;DHT22;479;53.514;9.994;2023-05-18T14:35:31;16.10;43.50
981;DHT22;479;53.514;9.994;2023-05-18T14:37:58;16.20;41.80
981;DHT22;479;53.514;9.994;2023-05-18T14:40:26;16.20;41.80
981;DHT22;479;53.514;9.994;2023-05-18T14:42:53;16.30;42.00
981;DHT22;479;53.514;9.994;2023-05-18T14:45:20;16.40;43.10
981;DHT22;479;53.514;9.994;2023-05-18T14:47:47;16.30;41.90
981;DHT22;479;53.514;9.994;2023-05-18T14:50:14;16.30;42.50
981;DHT22;479;53.514;9.994;2023-05-18T14:52:41;16.30;42.90
981;DHT22;479;53.514;9.994;2023-05-18T14:55:08;16.40;42.90
981;DHT22;479;53.514;9.994;2023-05-18T14:57:36;16.30;43.60
981;DHT22;479;53.514;9.994;2023-05-18T15:00:04;16.20;44.50
981;DHT22;479;53.514;9.994;2023-05-18T15:02:31;16.10;45.20
981;DHT22;479;53.514;9.994;2023-05-18T15:04:58;16.30;45.80
981;DHT22;479;53.514;9.994;2023-05-18T15:07:25;16.20;44.60
981;DHT22;479;53.514;9.994;2023-05-18T15:09:51;16.20;45.30
981;DHT22;479;53.514;9.994;2023-05-18T15:12:19;16.30;45.00
981;DHT22;479;53.514;9.994;2023-05-18T15:14:49;16.10;44.50
981;DHT22;479;53.514;9.994;2023-05-18T15:17:16;16.20;45.00
981;DHT22;479;53.514;9.994;2023-05-18T15:19:43;16.30;44.90
981;DHT22;479;53.514;9.994;2023-05-18T15:22:11;16.20;44.50
981;DHT22;479;53.514;9.994;2023-05-18T15:24:38;16.20;44.90
981;DHT22;479;53.514;9.994;2023-05-18T15:27:05;16.20;44.80
981;DHT22;479;53.514;9.994;2023-05-18T15:29:33;16.20;43.70
981;DHT22;479;53.514;9.994;2023-05-18T15:32:01;16.30;44.70
981;DHT22;479;53.514;9.994;2023-05-18T15:34:28;16.20;45.20
981;DHT22;479;53.514;9.994;2023-05-18T15:36:58;16.10;45.90
981;DHT22;479;53.514;9.994;2023-05-18T15:39:24;16.10;46.60
981;DHT22;479;53.514;9.994;2023-05-18T15:41:51;16.20;46.70
981;DHT22;479;53.514;9.994;2023-05-18T15:44:18;16.30;46.10
981;DHT22;479;53.514;9.994;2023-05-18T15:46:45;16.20;46.50
981;DHT22;479;53.514;9.994;2023-05-18T15:49:13;16.20;47.10
981;DHT22;479;53.514;9.994;2023-05-18T15:51:40;16.20;46.80
981;DHT22;479;53.514;9.994;2023-05-18T15:54:07;16.40;47.00
981;DHT22;479;53.514;9.994;2023-05-18T15:56:33;16.40;45.80
981;DHT22;479;53.514;9.994;2023-05-18T15:59:00;16.40;45.00
981;DHT22;479;53.514;9.994;2023-05-18T16:01:27;16.40;45.40
981;DHT22;479;53.514;9.994;2023-05-18T16:03:54;16.30;45.50
981;DHT22;479;53.514;9.994;2023-05-18T16:06:22;16.50;45.50
981;DHT22;479;53.514;9.994;2023-05-18T16:08:49;16.50;44.70
981;DHT22;479;53.514;9.994;2023-05-18T16:11:16;16.40;43.50
981;DHT22;479;53.514;9.994;2023-05-18T16:13:43;16.30;43.50
981;DHT22;479;53.514;9.994;2023-05-18T16:16:10;16.10;43.30
981;DHT22;479;53.514;9.994;2023-05-18T16:18:38;16.20;43.80
981;DHT22;479;53.514;9.994;2023-05-18T16:21:05;16.10;43.80
981;DHT22;479;53.514;9.994;2023-05-18T16:23:33;16.10;45.20
981;DHT22;479;53.514;9.994;2023-05-18T16:26:00;16.20;44.80
981;DHT22;479;53.514;9.994;2023-05-18T16:28:30;16.10;44.30
981;DHT22;479;53.514;9.994;2023-05-18T16:30:57;16.20;44.80
981;DHT22;479;53.514;9.994;2023-05-18T16:33:24;16.20;44.20
981;DHT22;479;53.514;9.994;2023-05-18T16:35:51;16.20;44.30
981;DHT22;479;53.514;9.994;2023-05-18T16:38:21;16.30;45.10
981;DHT22;479;53.514;9.994;2023-05-18T16:40:53;16.30;45.80
981;DHT22;479;53.514;9.994;2023-05-18T16:43:20;16.20;45.80
981;DHT22;479;53.514;9.994;2023-05-18T16:45:51;16.00;45.60
981;DHT22;479;53.514;9.994;2023-05-18T16:48:18;16.10;45.90
981;DHT22;479;53.514;9.994;2023-05-18T16:50:49;16.10;45.30
981;DHT22;479;53.514;9.994;2023-05-18T16:53:16;16.00;46.00